Time;durP1;ratioP1;P1;durP2;ratioP2;P2;SDS_P1;SDS_P2;PMS_P1;PMS_P2;Temp;Humidity;BMP_temperature;BMP_pressure;BME280_temperature;BME280_humidity;BME280_pressure;Samples;Min_cycle;Max_cycle;Signal;HPM_P1;HPM_P2
2022/11/10 00:00:00;;;;;;;20.33;11.02;;;;;;;13.38;100.00;101218.66;4972756;28;20042;-81
2022/11/10 00:02:46;;;;;;;20.63;11.57;;;;;;;13.31;100.00;101225.28;4976432;28;20073;-81
2022/11/10 00:05:36;;;;;;;21.15;12.18;;;;;;;13.42;100.00;101217.81;4973737;28;20058;-81
2022/11/10 00:08:23;;;;;;;18.13;11.60;;;;;;;13.35;100.00;101217.28;4980740;28;20038;-81
2022/11/10 00:11:09;;;;;;;21.25;12.27;;;;;;;13.29;100.00;101226.69;4976261;28;20042;-81
2022/11/10 00:17:03;;;;;;;;;;;;;;;13.53;100.00;101226.03;4975776;28;20057;-81
2022/11/10 00:19:54;;;;;;;19.85;12.75;;;;;;;13.40;100.00;101228.25;4977045;28;19930;-81
2022/11/10 00:22:40;;;;;;;19.70;12.50;;;;;;;13.46;100.00;101225.50;4973608;28;20047;-81
2022/11/10 00:25:27;;;;;;;18.65;11.50;;;;;;;13.47;100.00;101227.16;4973105;28;20406;-81
2022/11/10 00:28:14;;;;;;;23.63;13.00;;;;;;;13.42;100.00;101226.06;4973464;28;20043;-81
2022/11/10 00:31:04;;;;;;;26.60;14.80;;;;;;;13.47;100.00;101228.00;4968998;28;20525;-80
2022/11/10 00:33:51;;;;;;;28.48;14.45;;;;;;;13.51;100.00;101231.00;4969885;28;20111;-81
2022/11/10 00:36:38;;;;;;;28.70;17.48;;;;;;;13.53;100.00;101234.28;4984817;28;20047;-80
2022/11/10 00:39:24;;;;;;;26.45;15.50;;;;;;;13.49;100.00;101230.47;4976414;28;20042;-81
2022/11/10 00:42:11;;;;;;;27.27;15.88;;;;;;;13.53;100.00;101239.78;4983563;28;20057;-80
2022/11/10 00:44:57;;;;;;;29.65;17.60;;;;;;;13.53;100.00;101229.63;4987674;28;20053;-80
2022/11/10 00:47:45;;;;;;;33.17;17.02;;;;;;;13.56;100.00;101229.06;4991111;28;20065;-80
2022/11/10 00:50:32;;;;;;;30.35;17.30;;;;;;;13.41;100.00;101229.91;4977591;28;20049;-81
2022/11/10 00:53:18;;;;;;;32.35;17.67;;;;;;;13.49;100.00;101235.97;4992801;28;20071;-81
2022/11/10 00:56:05;;;;;;;30.85;17.27;;;;;;;13.43;100.00;101230.47;4973071;28;20410;-81
2022/11/10 00:58:52;;;;;;;32.00;19.42;;;;;;;13.38;100.00;101225.00;4971255;28;20054;-80
2022/11/10 01:01:38;;;;;;;36.67;18.10;;;;;;;13.42;100.00;101228.81;4973772;28;20043;-81
2022/11/10 01:04:24;;;;;;;34.22;19.00;;;;;;;13.42;100.00;101228.81;4990413;28;20046;-81
2022/11/10 01:07:10;;;;;;;35.03;18.83;;;;;;;13.57;100.00;101229.88;4973073;28;20043;-81
2022/11/10 01:09:57;;;;;;;32.45;18.25;;;;;;;13.54;100.00;101231.25;4973305;28;20057;-81
2022/11/10 01:12:44;;;;;;;34.92;19.10;;;;;;;13.48;100.00;101229.63;4973450;28;20054;-81
2022/11/10 01:15:30;;;;;;;36.33;17.83;;;;;;;13.55;100.00;101223.84;4978393;28;20064;-80
2022/11/10 01:18:17;;;;;;;34.90;18.70;;;;;;;13.54;100.00;101225.75;4975979;28;20051;-80
2022/11/10 01:21:05;;;;;;;34.92;18.58;;;;;;;13.51;100.00;101222.75;4979034;28;20042;-80
2022/11/10 01:23:52;;;;;;;35.58;19.90;;;;;;;13.61;100.00;101230.94;4956053;28;20047;-80
2022/11/10 01:26:39;;;;;;;37.75;20.33;;;;;;;13.55;100.00;101232.88;4972593;28;20046;-80
2022/11/10 01:29:25;;;;;;;35.65;18.42;;;;;;;13.58;100.00;101226.00;4987258;28;20039;-80
2022/11/10 01:32:11;;;;;;;37.20;19.80;;;;;;;13.68;100.00;101231.44;4970589;28;20422;-80
2022/11/10 01:34:58;;;;;;;37.75;19.35;;;;;;;13.61;100.00;101232.88;4971509;28;20462;-80
2022/11/10 01:37:44;;;;;;;37.60;20.05;;;;;;;13.56;100.00;101237.31;4959421;28;20043;-81
2022/11/10 01:40:31;;;;;;;35.20;18.50;;;;;;;13.55;100.00;101229.34;4974167;28;20058;-80
2022/11/10 01:43:17;;;;;;;43.30;20.40;;;;;;;13.55;100.00;101226.59;4982279;28;20061;-80
2022/11/10 01:46:07;;;;;;;38.75;20.65;;;;;;;13.53;100.00;101226.03;4978615;28;20054;-81
2022/11/10 01:49:01;;;;;;;40.08;21.35;;;;;;;13.54;100.00;101224.94;4980271;28;20053;-81
2022/11/10 01:51:49;;;;;;;39.13;18.58;;;;;;;13.60;100.00;101222.97;4980252;28;20050;-80
2022/11/10 01:54:42;;;;;;;43.45;21.88;;;;;;;13.53;100.00;101224.13;4980070;28;20111;-80
2022/11/10 01:57:28;;;;;;;40.33;20.48;;;;;;;13.52;100.00;101224.38;4976078;28;20107;-80
2022/11/10 02:00:16;;;;;;;39.17;20.45;;;;;;;13.53;100.00;101223.28;4977514;28;20043;-80
2022/11/10 02:03:12;;;;;;;39.38;20.15;;;;;;;13.54;100.00;101219.44;4981277;28;20051;-80
2022/11/10 02:05:59;;;;;;;41.05;20.15;;;;;;;13.47;100.00;101218.91;4976622;28;20359;-80
2022/11/10 02:08:46;;;;;;;38.95;20.48;;;;;;;13.52;100.00;101224.38;4975951;28;20045;-81
2022/11/10 02:11:34;;;;;;;42.90;21.27;;;;;;;13.53;100.00;101223.28;4985590;28;20038;-80
2022/11/10 02:14:21;;;;;;;41.08;20.77;;;;;;;13.59;100.00;101213.88;4976207;28;20375;-81
2022/11/10 02:17:08;;;;;;;41.42;21.38;;;;;;;13.64;100.00;101213.84;4983029;28;20058;-81
2022/11/10 02:20:03;;;;;;;42.85;21.95;;;;;;;13.47;100.00;101213.41;4975950;28;20038;-81
2022/11/10 02:22:50;;;;;;;42.08;20.02;;;;;;;13.48;100.00;101212.34;4990828;28;20413;-81
2022/11/10 02:25:36;;;;;;;39.67;20.20;;;;;;;13.56;100.00;101217.22;4984951;28;20046;-81
2022/11/10 02:28:24;;;;;;;39.75;22.20;;;;;;;13.58;100.00;101209.50;4975770;28;20043;-81
2022/11/10 02:31:11;;;;;;;41.08;20.48;;;;;;;13.54;100.00;101211.19;4986107;28;20367;-80
2022/11/10 02:33:58;;;;;;;37.80;20.50;;;;;;;13.52;100.00;101216.13;4969669;28;20038;-80
2022/11/10 02:36:45;;;;;;;40.05;20.05;;;;;;;13.51;100.00;101209.00;4972947;28;20042;-82
2022/11/10 02:39:31;;;;;;;37.72;18.70;;;;;;;13.54;100.00;101219.44;4992353;28;20070;-83
2022/11/10 02:42:18;;;;;;;41.75;20.83;;;;;;;13.60;100.00;101221.06;4981290;28;20042;-82
2022/11/10 02:45:05;;;;;;;39.85;19.85;;;;;;;13.61;100.00;101225.44;4976050;28;20039;-82
2022/11/10 02:47:51;;;;;;;39.90;19.08;;;;;;;13.59;100.00;101233.13;4973909;28;20046;-82
2022/11/10 02:50:39;;;;;;;41.38;19.55;;;;;;;13.59;100.00;101232.34;4987313;28;20382;-82
2022/11/10 02:53:25;;;;;;;36.45;19.65;;;;;;;13.61;100.00;101235.63;4993324;28;20039;-82
2022/11/10 02:56:12;;;;;;;38.03;18.70;;;;;;;13.69;100.00;101230.34;4993975;28;20051;-82
2022/11/10 02:58:59;;;;;;;34.63;17.75;;;;;;;13.73;100.00;101235.28;4984911;28;20510;-83
2022/11/10 03:01:45;;;;;;;32.83;17.23;;;;;;;13.61;100.00;101239.19;4973683;28;20035;-83
2022/11/10 03:04:32;;;;;;;31.60;16.13;;;;;;;13.62;100.00;101242.75;4974568;28;20490;-83
2022/11/10 03:07:18;;;;;;;29.98;15.55;;;;;;;13.57;100.00;101240.84;4975210;28;20379;-83
2022/11/10 03:10:05;;;;;;;30.15;16.80;;;;;;;13.50;100.00;101243.09;4975050;28;20042;-82
2022/11/10 03:12:57;;;;;;;32.33;16.02;;;;;;;13.54;100.00;101241.44;4987435;28;20390;-82
2022/11/10 03:15:45;;;;;;;27.45;15.48;;;;;;;13.56;100.00;101244.72;4978485;28;20066;-82
2022/11/10 03:18:32;;;;;;;23.90;14.30;;;;;;;13.51;100.00;101247.50;4957812;28;20050;-82
2022/11/10 03:21:18;;;;;;;26.13;13.63;;;;;;;13.55;100.00;101251.34;4976131;28;20047;-82
2022/11/10 03:24:05;;;;;;;25.48;13.35;;;;;;;13.49;100.00;101252.47;4988635;28;20072;-82
2022/11/10 03:26:51;;;;;;;23.05;12.73;;;;;;;13.55;100.00;101256.84;4990746;28;20058;-82
2022/11/10 03:29:37;;;;;;;20.20;11.68;;;;;;;13.56;100.00;101261.22;4981962;28;20047;-82
2022/11/10 03:32:23;;;;;;;23.38;12.60;;;;;;;13.56;100.00;101272.22;4974000;28;20050;-82
2022/11/10 03:35:10;;;;;;;18.25;11.77;;;;;;;13.57;100.00;101271.94;4974301;28;20043;-83
2022/11/10 03:37:56;;;;;;;20.70;11.35;;;;;;;13.56;100.00;101274.97;4987599;28;20043;-82
2022/11/10 03:40:43;;;;;;;20.33;12.13;;;;;;;13.43;100.00;101268.97;4979735;28;20055;-82
2022/11/10 03:43:49;;;;;;;19.50;10.77;;;;;;;13.47;100.00;101271.16;4967276;28;20050;-82
2022/11/10 03:46:36;;;;;;;17.92;10.65;;;;;;;13.47;100.00;101273.91;4984208;28;20046;-82
2022/11/10 03:49:25;;;;;;;19.73;10.65;;;;;;;13.47;100.00;101273.91;4973361;28;20394;-83
2022/11/10 03:52:12;;;;;;;16.92;10.93;;;;;;;13.41;100.00;101284.09;4978980;28;20055;-82
2022/11/10 03:54:58;;;;;;;17.70;10.60;;;;;;;13.42;100.00;101286.56;4973358;28;20035;-82
2022/11/10 03:57:48;;;;;;;22.70;11.52;;;;;;;13.37;100.00;101296.75;4981336;28;20059;-82
2022/11/10 04:00:35;;;;;;;20.98;12.00;;;;;;;13.33;100.00;101290.97;4978488;28;20053;-82
2022/11/10 04:03:22;;;;;;;19.13;11.38;;;;;;;13.49;100.00;101300.00;4971931;28;20050;-82
2022/11/10 04:09:15;;;;;;;20.85;10.73;;;;;;;13.43;100.00;101303.88;4989030;28;20046;-82
2022/11/10 04:18:25;;;;;;;16.65;9.70;;;;;;;13.42;100.00;101305.81;4993635;28;20406;-83
2022/11/10 04:21:12;;;;;;;18.88;10.77;;;;;;;13.39;100.00;101328.34;4976598;28;20053;-82
2022/11/10 04:23:58;;;;;;;17.27;9.95;;;;;;;13.29;100.00;101328.38;4975660;28;20050;-83
2022/11/10 04:26:46;;;;;;;19.92;10.68;;;;;;;13.32;100.00;101325.09;4982773;28;20053;-83
2022/11/10 04:29:32;;;;;;;20.42;11.50;;;;;;;13.43;100.00;101332.19;4979176;28;20043;-83
2022/11/10 04:32:19;;;;;;;20.65;11.18;;;;;;;13.36;100.00;101325.34;4976258;28;20045;-83
2022/11/10 04:35:05;;;;;;;18.88;10.80;;;;;;;13.26;100.00;101329.75;4983899;28;20039;-83
2022/11/10 04:37:52;;;;;;;19.67;10.63;;;;;;;13.22;100.00;101327.84;4992928;28;20046;-84
2022/11/10 04:40:38;;;;;;;18.02;10.00;;;;;;;13.30;100.00;101335.53;4978914;28;20402;-84
2022/11/10 04:43:25;;;;;;;19.00;11.48;;;;;;;13.42;100.00;101335.22;4972437;28;20485;-83
2022/11/10 04:46:33;;;;;;;23.23;11.63;;;;;;;13.40;100.00;101340.19;4972216;28;20042;-83
2022/11/10 04:49:20;;;;;;;21.65;11.73;;;;;;;13.40;100.00;101343.72;4973045;28;20061;-83
2022/11/10 04:52:06;;;;;;;22.55;12.00;;;;;;;13.44;100.00;101342.09;4978044;28;20048;-84
2022/11/10 04:54:52;;;;;;;27.58;12.82;;;;;;;13.44;100.00;101344.81;4979640;28;20059;-84
2022/11/10 04:57:39;;;;;;;26.10;12.65;;;;;;;13.50;100.00;101344.84;4973279;28;20049;-84
2022/11/10 05:00:26;;;;;;;26.73;12.35;;;;;;;13.41;100.00;101342.63;4973019;28;20026;-84
2022/11/10 05:03:13;;;;;;;22.88;12.93;;;;;;;13.41;100.00;101342.63;4974289;28;20049;-84
2022/11/10 05:05:59;;;;;;;27.88;13.98;;;;;;;13.47;100.00;101340.72;4976494;28;20111;-84
2022/11/10 05:08:46;;;;;;;23.70;13.43;;;;;;;13.39;100.00;101336.59;4966955;28;20058;-85
2022/11/10 05:11:32;;;;;;;26.92;14.18;;;;;;;13.51;100.00;101346.47;4972765;28;20047;-85
2022/11/10 05:14:18;;;;;;;30.67;14.50;;;;;;;13.53;100.00;101344.25;4981169;28;20408;-86
2022/11/10 05:17:05;;;;;;;28.95;14.25;;;;;;;13.52;100.00;101345.38;4960752;28;20039;-84
2022/11/10 05:19:51;;;;;;;30.85;15.35;;;;;;;13.49;100.00;101345.94;4972951;28;20059;-84
2022/11/10 05:22:38;;;;;;;26.15;14.18;;;;;;;13.46;100.00;101349.22;4973906;28;20391;-85
2022/11/10 05:25:24;;;;;;;28.50;14.88;;;;;;;13.39;100.00;101341.28;4972588;28;20066;-85
2022/11/10 05:28:12;;;;;;;25.00;13.88;;;;;;;13.49;100.00;101354.19;4976979;28;20046;-85
2022/11/10 05:30:58;;;;;;;28.65;14.80;;;;;;;13.62;100.00;101355.50;4990807;28;20061;-84
2022/11/10 05:33:45;;;;;;;28.20;14.38;;;;;;;13.61;100.00;101362.13;4976936;28;20054;-85
2022/11/10 05:36:31;;;;;;;27.23;15.55;;;;;;;13.59;100.00;101364.34;4975917;28;20061;-89
2022/11/10 05:39:18;;;;;;;25.98;14.65;;;;;;;13.55;100.00;101355.81;4968806;28;20053;-89
2022/11/10 05:42:04;;;;;;;28.90;15.27;;;;;;;13.60;100.00;101372.31;4980281;28;20496;-90
2022/11/10 05:44:50;;;;;;;26.50;15.60;;;;;;;13.62;100.00;101372.84;4979289;28;20043;-89
2022/11/10 05:47:37;;;;;;;30.75;14.90;;;;;;;13.70;100.00;101382.44;4971974;28;20402;-90
2022/11/10 05:50:24;;;;;;;29.58;14.75;;;;;;;13.65;100.00;101380.50;4989528;28;20062;-90
2022/11/10 05:53:10;;;;;;;32.55;14.85;;;;;;;13.58;100.00;101380.00;4976291;28;20053;-84
2022/11/10 05:55:56;;;;;;;30.65;15.27;;;;;;;13.65;100.00;101391.50;4976314;28;20046;-85
2022/11/10 05:58:42;;;;;;;30.67;15.52;;;;;;;13.66;100.00;101397.84;4961799;28;20054;-85
2022/11/10 06:01:29;;;;;;;32.53;15.43;;;;;;;13.66;100.00;101395.09;4972440;28;20478;-84
2022/11/10 06:04:15;;;;;;;27.33;15.23;;;;;;;13.73;100.00;101392.06;4974105;28;20046;-86
2022/11/10 06:07:02;;;;;;;32.88;17.00;;;;;;;13.73;100.00;101398.38;4990302;28;20046;-83
2022/11/10 06:09:48;;;;;;;33.05;16.83;;;;;;;13.70;100.00;101404.44;4986875;28;20042;-83
2022/11/10 06:12:35;;;;;;;33.25;16.63;;;;;;;13.73;100.00;101409.38;4975971;28;20717;-84
2022/11/10 06:15:22;;;;;;;32.58;16.02;;;;;;;13.69;100.00;101414.63;4990076;28;20043;-84
2022/11/10 06:18:09;;;;;;;32.15;17.15;;;;;;;13.76;100.00;101417.06;4971741;28;20046;-83
2022/11/10 06:20:55;;;;;;;37.85;18.73;;;;;;;13.76;100.00;101422.56;4984708;28;20055;-84
2022/11/10 06:23:42;;;;;;;33.95;17.58;;;;;;;13.86;100.00;101435.47;4973662;28;20420;-85
2022/11/10 06:26:28;;;;;;;33.35;18.65;;;;;;;13.87;100.00;101439.06;4975180;28;20039;-86
2022/11/10 06:29:15;;;;;;;38.15;19.73;;;;;;;13.86;100.00;101440.97;4974676;28;20051;-85
2022/11/10 06:32:01;;;;;;;38.72;18.92;;;;;;;13.77;100.00;101445.38;4977329;28;20043;-84
2022/11/10 06:34:48;;;;;;;33.58;17.50;;;;;;;13.84;100.00;101455.00;4986468;28;20061;-85
2022/11/10 06:37:34;;;;;;;31.30;17.30;;;;;;;13.83;100.00;101450.59;4973991;28;20051;-84
2022/11/10 06:40:21;;;;;;;33.60;16.58;;;;;;;13.89;100.00;101467.91;4955361;29;20058;-84
2022/11/10 06:43:07;;;;;;;30.45;16.38;;;;;;;13.91;100.00;101470.38;4956057;29;20055;-84
2022/11/10 06:45:54;;;;;;;32.30;17.88;;;;;;;13.85;100.00;101466.84;4973479;28;20047;-84
2022/11/10 06:48:40;;;;;;;31.70;15.73;;;;;;;13.91;100.00;101471.22;4974176;28;20498;-84
2022/11/10 06:51:27;;;;;;;23.80;14.73;;;;;;;13.92;100.00;101461.03;4974630;28;20528;-84
2022/11/10 06:54:13;;;;;;;23.17;15.15;;;;;;;13.83;100.00;101467.13;4973702;28;20047;-85
2022/11/10 06:56:59;;;;;;;23.60;13.68;;;;;;;13.84;100.00;101477.00;4977178;28;20489;-86
2022/11/10 06:59:48;;;;;;;18.15;11.45;;;;;;;13.89;100.00;101473.41;4983332;28;20050;-85
2022/11/10 07:02:35;;;;;;;22.23;13.27;;;;;;;13.86;100.00;101473.16;4995135;28;20054;-87
2022/11/10 07:05:22;;;;;;;23.85;12.35;;;;;;;13.88;100.00;101482.78;4979641;28;20058;-86
2022/11/10 07:08:15;;;;;;;25.90;13.45;;;;;;;13.93;100.00;101491.00;4975020;28;20042;-88
2022/11/10 07:11:01;;;;;;;22.75;12.02;;;;;;;13.98;100.00;101490.16;4987109;28;20057;-85
2022/11/10 07:13:48;;;;;;;20.85;11.80;;;;;;;14.02;100.00;101487.69;4979777;28;20050;-84
2022/11/10 07:16:34;;;;;;;21.83;11.75;;;;;;;14.02;100.00;101482.19;4974999;28;20051;-84
2022/11/10 07:19:20;;;;;;;22.60;12.15;;;;;;;14.10;100.00;101489.84;4974789;28;20052;-84
2022/11/10 07:22:07;;;;;;;21.42;12.75;;;;;;;14.00;100.00;101495.38;4975222;28;20784;-85
2022/11/10 07:24:56;;;;;;;23.88;13.05;;;;;;;13.93;100.00;101499.25;4959380;28;20039;-85
2022/11/10 07:27:43;;;;;;;20.30;12.85;;;;;;;14.06;100.00;101511.63;4983737;28;20054;-84
2022/11/10 07:30:31;;;;;;;22.60;13.27;;;;;;;14.12;100.00;101515.16;4994426;28;20050;-85
2022/11/10 07:33:18;;;;;;;26.75;14.05;;;;;;;14.17;100.00;101526.16;4993178;28;20034;-84
2022/11/10 07:36:06;;;;;;;24.98;13.25;;;;;;;14.19;100.00;101523.13;4977958;28;20054;-85
2022/11/10 07:38:52;;;;;;;23.73;12.85;;;;;;;14.01;100.00;101524.56;4975097;28;20074;-85
2022/11/10 07:41:40;;;;;;;27.15;13.50;;;;;;;14.19;100.00;101531.38;4974787;28;20055;-84
2022/11/10 07:44:26;;;;;;;30.45;15.73;;;;;;;14.28;100.00;101535.22;4983521;28;20058;-85
2022/11/10 07:47:13;;;;;;;24.77;14.35;;;;;;;14.34;100.00;101530.50;4974374;28;20054;-85
2022/11/10 07:49:59;;;;;;;32.13;17.33;;;;;;;14.43;100.00;101531.56;4990557;28;20061;-85
2022/11/10 07:52:45;;;;;;;30.35;16.88;;;;;;;14.57;100.00;101525.44;4992537;28;20046;-84
2022/11/10 07:55:32;;;;;;;37.00;18.45;;;;;;;14.63;100.00;101535.31;4985933;28;20043;-84
2022/11/10 07:58:19;;;;;;;34.63;18.17;;;;;;;14.80;100.00;101556.19;4974363;28;20062;-84
2022/11/10 08:01:05;;;;;;;31.45;17.38;;;;;;;14.87;100.00;101551.19;4988534;28;20050;-85
2022/11/10 08:03:52;;;;;;;33.35;17.45;;;;;;;14.99;100.00;101548.91;4993718;28;20497;-84
2022/11/10 08:06:39;;;;;;;33.33;16.98;;;;;;;15.01;100.00;101543.91;4975313;28;20057;-85
2022/11/10 08:09:25;;;;;;;32.53;16.60;;;;;;;15.12;100.00;101554.88;4973650;28;20070;-85
2022/11/10 08:12:11;;;;;;;28.13;16.23;;;;;;;15.17;100.00;101555.63;4973723;28;20047;-85
2022/11/10 08:14:58;;;;;;;26.63;14.63;;;;;;;15.25;98.11;101556.97;4974860;28;20390;-85
2022/11/10 08:17:44;;;;;;;26.05;13.55;;;;;;;15.38;95.24;101565.69;4955077;28;20497;-84
2022/11/10 08:20:31;;;;;;;21.67;13.23;;;;;;;15.51;94.83;101558.69;4955796;28;20051;-84
2022/11/10 08:23:18;;;;;;;21.08;12.18;;;;;;;15.58;94.59;101562.78;4975575;28;20039;-84
2022/11/10 08:26:05;;;;;;;18.50;11.27;;;;;;;15.61;95.08;101571.56;4973671;28;20062;-84
2022/11/10 08:28:51;;;;;;;19.95;10.68;;;;;;;15.71;95.76;101582.53;4973567;28;20063;-84
2022/11/10 08:31:37;;;;;;;18.35;10.55;;;;;;;15.90;96.23;101601.09;4975959;28;20490;-83
2022/11/10 08:34:24;;;;;;;20.35;10.68;;;;;;;15.92;92.21;101590.59;4992750;28;20398;-83
2022/11/10 08:37:10;;;;;;;18.45;12.10;;;;;;;15.92;95.00;101593.34;4977783;28;20139;-83
2022/11/10 08:39:56;;;;;;;16.98;10.85;;;;;;;16.01;93.92;101599.91;4991014;28;20054;-84
2022/11/10 08:42:43;;;;;;;16.98;10.48;;;;;;;16.11;94.66;101601.75;4992529;28;20050;-84
2022/11/10 08:45:29;;;;;;;19.13;10.85;;;;;;;16.12;96.04;101612.50;4983133;28;20058;-84
2022/11/10 08:48:18;;;;;;;20.67;11.88;;;;;;;16.21;94.35;101620.13;4981417;28;20054;-84
2022/11/10 08:51:05;;;;;;;17.25;10.80;;;;;;;16.00;93.51;101631.41;4990563;28;20497;-84
2022/11/10 08:53:52;;;;;;;19.55;12.85;;;;;;;15.93;95.02;101634.50;4983729;28;20376;-84
2022/11/10 08:56:41;;;;;;;22.63;13.13;;;;;;;15.87;96.50;101638.38;4972966;28;20948;-83
2022/11/10 08:59:27;;;;;;;23.38;13.27;;;;;;;15.71;97.85;101635.78;4974151;28;20054;-83
2022/11/10 09:02:14;;;;;;;22.75;12.82;;;;;;;15.76;98.07;101648.69;4973652;28;20046;-83
2022/11/10 09:05:00;;;;;;;23.45;13.07;;;;;;;15.72;97.46;101658.66;4972810;28;20489;-82
2022/11/10 09:07:48;;;;;;;21.70;12.48;;;;;;;15.66;95.81;101654.31;4974263;28;20047;-82
2022/11/10 09:10:38;;;;;;;22.88;12.75;;;;;;;15.83;98.38;101657.47;4973622;28;20062;-83
2022/11/10 09:13:24;;;;;;;20.63;12.77;;;;;;;15.94;94.81;101668.47;4973594;28;20529;-82
2022/11/10 09:16:15;;;;;;;25.67;13.85;;;;;;;15.99;97.38;101673.94;4973262;28;20055;-82
2022/11/10 09:19:02;;;;;;;26.23;14.50;;;;;;;16.04;96.13;101684.09;4969587;28;20046;-83
2022/11/10 09:21:48;;;;;;;25.83;14.25;;;;;;;16.10;97.30;101691.22;4972723;28;20058;-83
2022/11/10 09:24:35;;;;;;;25.08;13.30;;;;;;;16.21;96.55;101695.53;4972987;28;20049;-83
2022/11/10 09:27:22;;;;;;;26.50;13.90;;;;;;;16.23;94.45;101696.06;4972922;28;20065;-82
2022/11/10 09:30:08;;;;;;;27.20;14.38;;;;;;;16.22;93.25;101705.47;4973044;28;20054;-83
2022/11/10 09:33:02;;;;;;;27.70;13.40;;;;;;;16.21;95.23;101702.97;4972959;28;20046;-82
2022/11/10 09:35:49;;;;;;;26.25;14.02;;;;;;;16.09;96.22;101706.16;4973238;28;20062;-83
2022/11/10 09:38:38;;;;;;;25.50;14.35;;;;;;;15.98;98.04;101716.44;4972908;28;20073;-83
2022/11/10 09:41:28;;;;;;;25.27;12.23;;;;;;;15.86;97.57;101714.03;4953968;29;20051;-82
2022/11/10 09:44:22;;;;;;;22.10;12.25;;;;;;;15.87;96.08;101720.38;4959105;28;20039;-85
2022/11/10 09:47:14;;;;;;;23.42;12.70;;;;;;;15.87;95.73;101732.22;4975030;28;20394;-84
2022/11/10 09:50:25;;;;;;;20.35;11.65;;;;;;;15.73;97.98;101734.81;4972194;28;20046;-83
2022/11/10 09:53:18;;;;;;;19.38;10.75;;;;;;;15.70;94.81;101738.16;4988020;28;20049;-82
2022/11/10 09:56:06;;;;;;;22.10;11.88;;;;;;;15.70;97.85;101743.69;4987774;28;20503;-82
2022/11/10 09:58:55;;;;;;;19.52;11.27;;;;;;;15.69;98.99;101750.31;4983131;28;20049;-84
2022/11/10 10:01:50;;;;;;;20.02;10.57;;;;;;;15.58;98.15;101744.84;4971191;28;20057;-83
2022/11/10 10:04:39;;;;;;;;;;;;;;;15.53;100.00;101744.88;4985052;28;20087;-83
2022/11/10 10:07:38;;;;;;;18.40;10.82;;;;;;;15.63;98.44;101748.69;4978827;28;19925;-83
2022/11/10 10:10:27;;;;;;;20.60;11.77;;;;;;;15.57;100.00;101750.66;4984196;28;20050;-83
2022/11/10 10:13:19;;;;;;;20.58;12.75;;;;;;;15.65;99.18;101747.28;4972852;28;20051;-84
2022/11/10 10:16:11;;;;;;;22.70;12.18;;;;;;;15.74;97.76;101741.16;4974493;28;20062;-83
2022/11/10 10:19:24;;;;;;;27.27;15.10;;;;;;;16.10;97.85;101740.91;4974440;28;20050;-83
2022/11/10 10:22:35;;;;;;;23.67;12.90;;;;;;;16.21;97.91;101753.53;4975681;28;20042;-83
2022/11/10 10:25:23;;;;;;;25.88;14.80;;;;;;;16.30;96.31;101748.22;4987793;28;20047;-84
2022/11/10 10:28:21;;;;;;;22.92;13.98;;;;;;;16.43;96.02;101745.88;4974832;28;20054;-82
2022/11/10 10:31:19;;;;;;;27.75;15.25;;;;;;;16.25;96.54;101748.25;4974875;28;20434;-83
2022/11/10 10:34:14;;;;;;;28.55;14.40;;;;;;;16.66;93.09;101753.38;4974356;28;20059;-83
2022/11/10 10:37:01;;;;;;;29.98;14.98;;;;;;;16.75;93.45;101744.44;4976358;28;20525;-82
2022/11/10 10:39:50;;;;;;;28.55;14.95;;;;;;;17.10;92.48;101753.44;4973985;28;20406;-82
2022/11/10 10:42:36;;;;;;;25.35;13.35;;;;;;;17.25;92.83;101754.38;4978037;28;20042;-82
2022/11/10 10:45:27;;;;;;;28.38;15.15;;;;;;;17.34;89.53;101752.59;4956499;28;20502;-82
2022/11/10 10:48:27;;;;;;;24.02;13.18;;;;;;;17.83;85.95;101744.13;4958090;28;20085;-82
2022/11/10 10:51:43;;;;;;;24.40;13.00;;;;;;;18.04;84.43;101744.63;4957389;28;20051;-82
2022/11/10 10:54:32;;;;;;;22.73;12.82;;;;;;;18.40;82.87;101760.69;4971593;28;20058;-82
2022/11/10 10:57:22;;;;;;;23.23;13.27;;;;;;;18.25;84.20;101755.38;4975641;28;20051;-82
2022/11/10 11:00:28;;;;;;;25.42;14.10;;;;;;;18.07;85.90;101760.66;4985687;28;20054;-82
2022/11/10 11:03:45;;;;;;;23.50;12.98;;;;;;;18.36;82.67;101751.31;4989932;28;20042;-82
2022/11/10 11:06:33;;;;;;;18.63;11.63;;;;;;;18.62;81.97;101759.16;4975741;28;20054;-82
2022/11/10 11:09:38;;;;;;;22.98;13.10;;;;;;;18.79;80.34;101768.81;4975337;28;20051;-82
2022/11/10 11:12:28;;;;;;;20.70;13.05;;;;;;;19.03;81.20;101779.75;4975579;28;20050;-82
2022/11/10 11:15:20;;;;;;;20.25;11.45;;;;;;;19.04;78.32;101786.94;4974671;28;20054;-81
2022/11/10 11:18:13;;;;;;;20.58;11.57;;;;;;;19.61;78.27;101788.50;4974471;28;20061;-81
2022/11/10 11:21:11;;;;;;;20.88;11.65;;;;;;;19.74;nan;101786.81;4975177;28;20054;-82
2022/11/10 11:24:10;;;;;;;19.08;11.95;;;;;;;19.55;75.66;101789.75;4975463;28;20410;-82
2022/11/10 11:27:03;;;;;;;20.67;11.65;;;;;;;19.83;74.10;101788.84;4975078;28;20043;-81
2022/11/10 11:30:12;;;;;;;18.65;11.13;;;;;;;20.07;72.96;101793.31;4974712;28;20490;-82
2022/11/10 11:33:29;;;;;;;19.05;11.13;;;;;;;20.08;72.34;101790.22;4975423;28;20046;-82
2022/11/10 11:36:19;;;;;;;21.52;12.95;;;;;;;19.71;74.76;101793.00;4985131;28;20046;-80
2022/11/10 11:39:43;;;;;;;21.55;11.90;;;;;;;19.48;75.85;101783.81;4993869;28;20050;-82
2022/11/10 11:43:00;;;;;;;20.33;12.52;;;;;;;19.11;76.71;101791.25;4985190;28;20058;-80
2022/11/10 11:45:57;;;;;;;21.23;11.32;;;;;;;18.88;78.84;101793.88;4955516;28;20491;-81
2022/11/10 11:48:43;;;;;;;20.05;12.00;;;;;;;18.75;79.08;101801.06;4972796;28;20042;-81
2022/11/10 11:52:04;;;;;;;18.55;11.75;;;;;;;18.34;80.18;101808.16;4975415;28;20055;-81
2022/11/10 11:55:25;;;;;;;19.63;11.60;;;;;;;18.21;80.60;101807.81;4956111;28;20056;-81
2022/11/10 11:58:49;;;;;;;19.35;12.38;;;;;;;17.69;82.20;101811.31;4974017;28;20059;-81
2022/11/10 12:01:44;;;;;;;23.67;12.95;;;;;;;17.56;84.64;101807.34;4958501;28;20058;-81
2022/11/10 12:04:44;;;;;;;22.25;12.95;;;;;;;17.79;84.64;101804.00;4972276;28;20053;-81
2022/11/10 12:07:49;;;;;;;26.88;15.05;;;;;;;17.29;88.54;101803.28;4985812;28;20077;-81
2022/11/10 12:10:42;;;;;;;24.90;15.70;;;;;;;16.96;91.82;101814.13;4969862;28;20038;-79
2022/11/10 12:13:36;;;;;;;29.38;15.15;;;;;;;16.47;96.07;101814.06;4984941;28;20039;-81
2022/11/10 12:16:48;;;;;;;26.17;15.75;;;;;;;16.41;97.67;101820.75;4973568;28;20039;-79
2022/11/10 12:19:52;;;;;;;30.80;16.77;;;;;;;16.47;97.40;101827.06;4975420;28;20055;-81
2022/11/10 12:22:52;;;;;;;31.45;18.08;;;;;;;16.71;96.73;101821.56;4976611;28;20043;-82
2022/11/10 12:25:51;;;;;;;26.30;15.73;;;;;;;16.72;93.57;101833.47;4973583;28;20065;-80
2022/11/10 12:28:43;;;;;;;29.60;15.35;;;;;;;16.65;93.01;101834.63;4990213;28;20509;-79
2022/11/10 12:31:34;;;;;;;29.58;16.02;;;;;;;16.40;92.60;101838.44;4963090;28;20050;-80
2022/11/10 12:34:42;;;;;;;23.35;14.32;;;;;;;16.90;89.84;101838.25;4972962;28;20062;-80
2022/11/10 12:37:39;;;;;;;25.27;13.98;;;;;;;17.03;89.07;101839.53;4976453;28;20485;-80
2022/11/10 12:40:54;;;;;;;29.73;15.52;;;;;;;17.15;89.84;101844.66;4969829;28;20053;-80
2022/11/10 12:43:56;;;;;;;27.90;16.30;;;;;;;17.23;89.66;101847.88;4973025;28;20058;-79
2022/11/10 12:46:45;;;;;;;27.33;17.77;;;;;;;17.55;86.90;101849.19;4973774;28;20069;-80
2022/11/10 12:49:54;;;;;;;35.27;18.60;;;;;;;17.18;89.05;101849.63;4954450;28;20051;-82
2022/11/10 12:52:50;;;;;;;33.03;17.95;;;;;;;17.17;88.28;101866.50;4965114;28;20498;-81
2022/11/10 12:56:00;;;;;;;30.60;17.42;;;;;;;17.66;85.37;101861.75;4982502;28;20053;-80
2022/11/10 12:58:47;;;;;;;32.78;17.77;;;;;;;17.96;83.74;101859.69;4991952;28;20058;-80